Time;durP1;ratioP1;P1;durP2;ratioP2;P2;SDS_P1;SDS_P2;PMS_P1;PMS_P2;Temp;Humidity;BMP_temperature;BMP_pressure;BME280_temperature;BME280_humidity;BME280_pressure;Samples;Min_cycle;Max_cycle;Signal;HPM_P1;HPM_P2
2022/08/29 00:00:45;;;;;;;17.40;15.70;;;16.20;99.90;;;;;;5026874;28;20456;-71
2022/08/29 00:03:13;;;;;;;17.20;15.43;;;16.20;99.90;;;;;;5028530;28;20472;-71
2022/08/29 00:05:40;;;;;;;22.63;16.80;;;16.10;99.90;;;;;;5028766;28;20552;-72
2022/08/29 00:08:07;;;;;;;17.03;15.43;;;16.10;99.90;;;;;;5028888;28;20470;-71
2022/08/29 00:10:38;;;;;;;16.73;15.03;;;16.10;99.90;;;;;;5028452;28;20456;-72
2022/08/29 00:13:06;;;;;;;16.13;14.53;;;16.10;99.90;;;;;;5028726;28;20475;-71
2022/08/29 00:15:33;;;;;;;18.23;16.43;;;16.10;99.90;;;;;;5028444;28;21000;-72
2022/08/29 00:18:01;;;;;;;17.60;15.73;;;16.10;99.90;;;;;;5028936;28;20460;-72
2022/08/29 00:20:31;;;;;;;18.10;16.20;;;16.10;99.90;;;;;;5028572;28;20452;-71
2022/08/29 00:22:58;;;;;;;20.30;16.30;;;16.20;99.90;;;;;;5028502;28;20972;-71
2022/08/29 00:25:26;;;;;;;17.47;15.77;;;16.10;99.90;;;;;;5029080;28;20571;-71
2022/08/29 00:27:53;;;;;;;19.20;17.13;;;16.10;99.90;;;;;;5028611;28;20449;-72
2022/08/29 00:30:21;;;;;;;19.53;17.70;;;16.10;99.90;;;;;;5028482;28;20809;-70
2022/08/29 00:32:48;;;;;;;17.90;16.07;;;16.10;99.90;;;;;;5028030;28;20489;-69
2022/08/29 00:35:18;;;;;;;17.90;14.93;;;16.10;99.90;;;;;;5028236;28;20458;-71
2022/08/29 00:37:46;;;;;;;18.47;16.57;;;16.10;99.90;;;;;;5028577;28;20517;-70
2022/08/29 00:40:16;;;;;;;17.50;15.67;;;16.00;99.90;;;;;;5029885;28;20444;-71
2022/08/29 00:42:43;;;;;;;17.07;15.37;;;16.00;99.90;;;;;;5029643;28;20469;-70
2022/08/29 00:45:13;;;;;;;17.87;16.07;;;16.00;99.90;;;;;;5030038;28;20449;-71
2022/08/29 00:47:44;;;;;;;18.10;16.30;;;16.00;99.90;;;;;;5029431;28;20453;-71
2022/08/29 00:50:19;;;;;;;18.20;16.30;;;16.00;99.90;;;;;;5029809;28;20452;-71
2022/08/29 00:52:49;;;;;;;17.20;15.60;;;16.00;99.90;;;;;;5029628;28;20486;-71
2022/08/29 00:55:24;;;;;;;18.03;15.70;;;15.90;99.90;;;;;;5029721;28;20556;-70
2022/08/29 00:57:56;;;;;;;18.50;16.60;;;15.90;99.90;;;;;;5029623;28;20951;-71
2022/08/29 01:00:24;;;;;;;19.33;16.07;;;15.90;99.90;;;;;;5029690;28;20452;-71
2022/08/29 01:02:51;;;;;;;20.23;18.43;;;15.80;99.90;;;;;;5029140;28;20467;-71
2022/08/29 01:05:19;;;;;;;18.77;16.77;;;15.80;99.90;;;;;;5029902;28;20449;-71
2022/08/29 01:07:48;;;;;;;19.00;17.07;;;15.80;99.90;;;;;;5029797;28;20465;-70
2022/08/29 01:12:56;;;;;;;20.03;17.30;;;15.70;99.90;;;;;;5028112;28;20495;-71
2022/08/29 01:15:23;;;;;;;17.70;15.77;;;15.60;99.90;;;;;;5029762;28;20490;-71
2022/08/29 01:17:51;;;;;;;18.70;16.80;;;15.60;99.90;;;;;;5029723;28;20459;-69
2022/08/29 01:20:24;;;;;;;21.67;16.90;;;15.60;99.90;;;;;;5029694;28;20449;-71
2022/08/29 01:23:01;;;;;;;17.57;15.83;;;15.50;99.90;;;;;;5029275;28;20488;-71
2022/08/29 01:25:32;;;;;;;18.03;16.00;;;15.50;99.90;;;;;;5029621;28;20448;-70
2022/08/29 01:28:04;;;;;;;20.73;18.40;;;15.50;99.90;;;;;;5029613;28;20449;-70
2022/08/29 01:30:31;;;;;;;17.83;15.93;;;15.50;99.90;;;;;;5029918;28;20440;-71
2022/08/29 01:32:59;;;;;;;17.97;16.07;;;15.50;99.90;;;;;;5029387;28;20480;-71
2022/08/29 01:35:27;;;;;;;17.73;15.87;;;15.50;99.90;;;;;;5029763;28;20444;-71
2022/08/29 01:37:54;;;;;;;20.60;17.83;;;15.50;99.90;;;;;;5029572;28;20448;-71
2022/08/29 01:40:27;;;;;;;19.40;17.60;;;15.60;99.90;;;;;;5029699;28;20816;-70
2022/08/29 01:42:56;;;;;;;20.40;17.20;;;15.50;99.90;;;;;;5029187;28;20469;-71
2022/08/29 01:45:23;;;;;;;21.37;18.87;;;15.60;99.90;;;;;;5029522;28;20515;-72
2022/08/29 01:47:50;;;;;;;19.60;16.17;;;15.50;99.90;;;;;;5029510;28;20444;-72
2022/08/29 01:50:17;;;;;;;18.47;16.50;;;15.50;99.90;;;;;;5029364;28;20444;-73
2022/08/29 01:52:43;;;;;;;18.20;16.30;;;15.40;99.90;;;;;;5028638;28;20493;-72
2022/08/29 01:55:10;;;;;;;21.57;18.30;;;15.40;99.90;;;;;;5029111;28;20465;-73
2022/08/29 01:57:38;;;;;;;18.43;16.73;;;15.40;99.90;;;;;;5029065;28;20460;-71
2022/08/29 02:00:10;;;;;;;19.60;17.60;;;15.40;99.90;;;;;;5031652;28;20472;-73
2022/08/29 02:02:37;;;;;;;20.63;18.60;;;15.40;99.90;;;;;;5032353;28;20469;-73
2022/08/29 02:05:04;;;;;;;20.80;18.80;;;15.30;99.90;;;;;;5032509;28;20480;-71
2022/08/29 02:07:31;;;;;;;22.07;19.00;;;15.30;99.90;;;;;;5033148;28;20448;-71
2022/08/29 02:09:58;;;;;;;19.77;17.97;;;15.30;99.90;;;;;;5032457;28;20449;-71
2022/08/29 02:12:25;;;;;;;19.20;17.30;;;15.30;99.90;;;;;;5032858;28;21325;-71
2022/08/29 02:14:52;;;;;;;20.47;18.47;;;15.30;99.90;;;;;;5032355;28;20956;-71
2022/08/29 02:17:21;;;;;;;20.00;17.73;;;15.20;99.90;;;;;;5032517;28;20441;-69
2022/08/29 02:19:47;;;;;;;19.63;17.53;;;15.20;99.90;;;;;;5032230;28;20960;-71
2022/08/29 02:22:14;;;;;;;20.60;17.40;;;15.10;99.90;;;;;;5032218;28;20476;-71
2022/08/29 02:24:41;;;;;;;21.47;19.17;;;15.10;99.90;;;;;;5032442;28;20453;-71
2022/08/29 02:27:09;;;;;;;20.27;18.20;;;15.20;99.90;;;;;;5032258;28;20448;-71
2022/08/29 02:29:36;;;;;;;18.53;16.80;;;15.20;99.90;;;;;;5032300;28;20449;-72
2022/08/29 02:32:03;;;;;;;20.97;18.87;;;15.20;99.90;;;;;;5031634;28;20550;-71
2022/08/29 02:34:32;;;;;;;19.90;17.87;;;15.20;99.90;;;;;;5031940;28;20455;-72
2022/08/29 02:36:59;;;;;;;19.53;17.63;;;15.20;99.90;;;;;;5031965;28;20511;-72
2022/08/29 02:39:26;;;;;;;20.63;18.40;;;15.20;99.90;;;;;;5031872;28;20441;-72
2022/08/29 02:41:53;;;;;;;21.33;19.13;;;15.10;99.90;;;;;;5031559;28;20543;-72
2022/08/29 02:44:20;;;;;;;20.27;18.23;;;15.10;99.90;;;;;;5031889;28;20453;-72
2022/08/29 02:46:47;;;;;;;18.90;16.90;;;15.20;99.90;;;;;;5031830;28;20437;-71
2022/08/29 02:49:14;;;;;;;18.27;16.37;;;15.20;99.90;;;;;;5032028;28;20451;-72
2022/08/29 02:51:42;;;;;;;18.27;16.40;;;15.10;99.90;;;;;;5031623;28;21029;-73
2022/08/29 02:54:10;;;;;;;20.00;18.10;;;15.00;99.90;;;;;;5031659;28;20753;-72
2022/08/29 02:56:37;;;;;;;21.13;18.90;;;14.90;99.90;;;;;;5031733;28;21157;-71
2022/08/29 02:59:04;;;;;;;23.03;20.53;;;14.90;99.90;;;;;;5031599;28;20827;-72
2022/08/29 03:01:32;;;;;;;19.53;17.57;;;14.90;99.90;;;;;;5031443;28;20457;-72
2022/08/29 03:03:58;;;;;;;19.30;17.50;;;15.00;99.90;;;;;;5031418;28;20463;-72
2022/08/29 03:06:25;;;;;;;20.97;18.90;;;15.00;99.90;;;;;;5031759;28;20449;-72
2022/08/29 03:08:53;;;;;;;21.80;18.17;;;15.00;99.90;;;;;;5031510;28;20444;-72
2022/08/29 03:11:20;;;;;;;21.83;19.63;;;14.90;99.90;;;;;;5030929;28;20460;-71
2022/08/29 03:13:47;;;;;;;19.70;17.60;;;14.80;99.90;;;;;;5031013;28;20503;-72
2022/08/29 03:16:14;;;;;;;20.40;18.33;;;14.80;99.90;;;;;;5031361;28;20928;-72
2022/08/29 03:18:41;;;;;;;20.83;18.70;;;14.90;99.90;;;;;;5031484;28;20941;-72
2022/08/29 03:21:16;;;;;;;19.90;17.90;;;14.90;99.90;;;;;;5031560;28;20506;-71
2022/08/29 03:23:42;;;;;;;22.10;17.33;;;14.90;99.90;;;;;;5031112;28;20527;-72
2022/08/29 03:26:11;;;;;;;20.63;16.80;;;14.80;99.90;;;;;;5031245;28;20461;-72
2022/08/29 03:28:37;;;;;;;19.70;17.30;;;14.70;99.90;;;;;;5030968;28;20448;-72
2022/08/29 03:31:04;;;;;;;19.90;17.90;;;14.70;99.90;;;;;;5031299;28;20452;-72
2022/08/29 03:33:31;;;;;;;18.27;16.33;;;14.70;99.90;;;;;;5030707;28;20489;-72
2022/08/29 03:35:58;;;;;;;20.50;18.40;;;14.60;99.90;;;;;;5031139;28;20830;-72
2022/08/29 03:38:25;;;;;;;19.50;17.50;;;14.60;99.90;;;;;;5031055;28;20444;-72
2022/08/29 03:40:52;;;;;;;19.30;17.30;;;14.60;99.90;;;;;;5030763;28;20440;-72
2022/08/29 03:43:20;;;;;;;20.90;18.80;;;14.60;99.90;;;;;;5030667;28;20464;-72
2022/08/29 03:45:47;;;;;;;21.33;19.20;;;14.70;99.90;;;;;;5030753;28;20976;-72
2022/08/29 03:48:14;;;;;;;19.93;17.93;;;14.60;99.90;;;;;;5030722;28;20476;-72
2022/08/29 03:50:41;;;;;;;20.90;18.33;;;14.50;99.90;;;;;;5030791;28;20441;-72
2022/08/29 03:53:08;;;;;;;21.27;18.20;;;14.50;99.90;;;;;;5030160;28;20480;-72
2022/08/29 03:55:35;;;;;;;21.37;19.20;;;14.50;99.90;;;;;;5030487;28;20472;-72
2022/08/29 03:58:02;;;;;;;21.87;19.00;;;14.50;99.90;;;;;;5030430;28;20945;-72
2022/08/29 04:00:30;;;;;;;20.40;18.37;;;14.40;99.90;;;;;;5030456;28;20532;-73
2022/08/29 04:02:57;;;;;;;21.47;18.50;;;14.50;99.90;;;;;;5030189;28;20822;-72
2022/08/29 04:05:24;;;;;;;25.30;18.93;;;14.50;99.90;;;;;;5030468;28;20453;-73
2022/08/29 04:07:55;;;;;;;21.07;18.90;;;14.50;99.90;;;;;;5030269;28;20969;-72
2022/08/29 04:10:25;;;;;;;21.23;18.60;;;14.50;99.90;;;;;;5030234;28;20827;-71
2022/08/29 04:12:52;;;;;;;28.03;22.47;;;14.50;99.90;;;;;;5029927;28;20495;-72
2022/08/29 04:15:19;;;;;;;20.53;18.53;;;14.50;99.90;;;;;;5030249;28;20456;-72
2022/08/29 04:17:49;;;;;;;20.07;18.07;;;14.50;99.90;;;;;;5030346;28;20817;-70
2022/08/29 04:20:16;;;;;;;19.73;17.63;;;14.40;99.90;;;;;;5030230;28;20452;-70
2022/08/29 04:22:43;;;;;;;19.57;17.57;;;14.40;99.90;;;;;;5028947;28;20465;-71
2022/08/29 04:25:13;;;;;;;21.50;19.30;;;14.30;99.90;;;;;;5030360;28;20828;-72
2022/08/29 04:27:41;;;;;;;25.13;20.17;;;14.30;99.90;;;;;;5030215;28;20449;-72
2022/08/29 04:30:11;;;;;;;23.37;20.87;;;14.40;99.90;;;;;;5030177;28;20452;-71
2022/08/29 04:32:38;;;;;;;22.13;19.53;;;14.40;99.90;;;;;;5029637;28;20486;-72
2022/08/29 04:35:07;;;;;;;20.27;18.27;;;14.30;99.90;;;;;;5029915;28;20490;-72
2022/08/29 04:37:34;;;;;;;23.00;20.00;;;14.30;99.90;;;;;;5030141;28;20448;-72
2022/08/29 04:40:01;;;;;;;21.70;19.13;;;14.40;99.90;;;;;;5030134;28;20456;-71
2022/08/29 04:42:29;;;;;;;20.53;18.07;;;14.40;99.90;;;;;;5029370;28;20976;-70
2022/08/29 04:44:57;;;;;;;20.67;18.57;;;14.30;99.90;;;;;;5029949;28;20453;-72
2022/08/29 04:47:24;;;;;;;22.17;19.60;;;14.30;99.90;;;;;;5029880;28;20444;-71
2022/08/29 04:49:55;;;;;;;19.67;17.67;;;14.30;99.90;;;;;;5029666;28;20459;-70
2022/08/29 04:52:23;;;;;;;22.00;19.00;;;14.30;99.90;;;;;;5029430;28;20531;-71
2022/08/29 04:54:50;;;;;;;24.43;18.07;;;14.30;99.90;;;;;;5029678;28;20464;-71
2022/08/29 04:57:17;;;;;;;19.70;16.97;;;14.30;99.90;;;;;;5029803;28;20491;-71
2022/08/29 04:59:44;;;;;;;18.07;16.13;;;14.40;99.90;;;;;;5029576;28;20444;-72
2022/08/29 05:02:11;;;;;;;19.43;16.77;;;14.40;99.90;;;;;;5029195;28;20484;-71
2022/08/29 05:04:38;;;;;;;19.30;17.40;;;14.40;99.90;;;;;;5029789;28;20535;-72
2022/08/29 05:07:05;;;;;;;20.13;18.00;;;14.40;99.90;;;;;;5030349;28;20445;-72
2022/08/29 05:09:33;;;;;;;20.50;18.33;;;14.40;99.90;;;;;;5030101;28;20455;-69
2022/08/29 05:12:02;;;;;;;20.90;18.57;;;14.40;99.90;;;;;;5029644;28;20453;-69
2022/08/29 05:14:28;;;;;;;24.77;20.67;;;14.50;99.90;;;;;;5029847;28;20480;-71
2022/08/29 05:16:55;;;;;;;21.23;19.03;;;14.50;99.90;;;;;;5029905;28;20480;-70
2022/08/29 05:19:22;;;;;;;21.30;19.13;;;14.50;99.90;;;;;;5029822;28;20457;-71
2022/08/29 05:21:55;;;;;;;23.73;19.50;;;14.60;99.90;;;;;;5029220;28;20459;-70
2022/08/29 05:24:22;;;;;;;29.40;21.43;;;14.70;99.90;;;;;;5029741;28;20862;-71
2022/08/29 05:26:51;;;;;;;21.53;18.40;;;14.70;99.90;;;;;;5029526;28;20456;-70
2022/08/29 05:29:19;;;;;;;21.83;16.60;;;14.70;99.90;;;;;;5029314;28;20453;-69
2022/08/29 05:31:47;;;;;;;20.13;17.87;;;14.70;99.90;;;;;;5029154;28;20467;-70
2022/08/29 05:34:14;;;;;;;20.83;18.17;;;14.70;99.90;;;;;;5032364;28;20512;-71
2022/08/29 05:36:41;;;;;;;20.83;18.53;;;14.70;99.90;;;;;;5033170;28;20453;-70
2022/08/29 05:39:08;;;;;;;22.40;18.23;;;14.80;99.90;;;;;;5033234;28;20448;-71
2022/08/29 05:41:35;;;;;;;19.17;17.17;;;14.80;99.90;;;;;;5033003;28;20824;-71
2022/08/29 05:44:03;;;;;;;19.33;17.33;;;14.90;99.90;;;;;;5032619;28;20468;-71
2022/08/29 05:46:30;;;;;;;20.30;18.20;;;15.00;99.90;;;;;;5032965;28;20453;-71
2022/08/29 05:48:57;;;;;;;19.30;17.30;;;15.10;99.90;;;;;;5033089;28;20471;-72
2022/08/29 05:51:24;;;;;;;20.70;18.60;;;15.20;99.90;;;;;;5032823;28;20820;-71
2022/08/29 05:53:51;;;;;;;19.83;17.73;;;15.20;99.90;;;;;;5032215;28;20528;-71
2022/08/29 05:56:22;;;;;;;20.33;18.17;;;15.30;99.90;;;;;;5032717;28;20453;-71
2022/08/29 05:58:49;;;;;;;20.13;18.13;;;15.30;99.90;;;;;;5033069;28;20451;-71
2022/08/29 06:01:23;;;;;;;19.50;17.00;;;15.40;99.90;;;;;;5032603;28;20445;-70
2022/08/29 06:03:50;;;;;;;18.13;16.47;;;15.40;99.90;;;;;;5032521;28;21137;-70
2022/08/29 06:06:20;;;;;;;17.80;16.00;;;15.40;99.90;;;;;;5032624;28;20455;-71
2022/08/29 06:08:48;;;;;;;19.67;17.57;;;15.50;99.90;;;;;;5032529;28;20607;-71
2022/08/29 06:11:16;;;;;;;20.13;17.93;;;15.60;99.90;;;;;;5032729;28;20453;-71
2022/08/29 06:13:43;;;;;;;20.97;15.87;;;15.70;99.90;;;;;;5032328;28;20481;-70
2022/08/29 06:16:12;;;;;;;15.47;13.17;;;15.80;99.90;;;;;;5032630;28;20445;-71
2022/08/29 06:18:41;;;;;;;14.97;13.37;;;15.80;99.90;;;;;;5032503;28;20445;-71
2022/08/29 06:21:09;;;;;;;14.27;12.97;;;15.90;99.90;;;;;;5032379;28;20495;-71
2022/08/29 06:23:36;;;;;;;15.23;13.63;;;15.90;99.90;;;;;;5031789;28;20468;-70
2022/08/29 06:26:03;;;;;;;16.40;14.30;;;16.00;99.90;;;;;;5032143;28;20932;-70
2022/08/29 06:28:31;;;;;;;16.57;14.80;;;16.00;99.90;;;;;;5032285;28;20452;-71
2022/08/29 06:31:04;;;;;;;17.33;15.57;;;16.10;99.90;;;;;;5032486;28;20463;-72
2022/08/29 06:33:31;;;;;;;16.43;14.73;;;16.20;99.90;;;;;;5031663;28;20575;-71
2022/08/29 06:35:59;;;;;;;16.67;14.97;;;16.20;99.90;;;;;;5031985;28;20482;-70
2022/08/29 06:38:25;;;;;;;17.90;15.93;;;16.20;99.90;;;;;;5032314;28;20453;-71
2022/08/29 06:40:52;;;;;;;15.10;13.70;;;16.30;99.90;;;;;;5033008;28;20432;-71
2022/08/29 06:43:19;;;;;;;17.57;15.10;;;16.50;99.90;;;;;;5032587;28;20472;-69
2022/08/29 06:45:46;;;;;;;17.30;13.97;;;16.50;99.90;;;;;;5031933;28;20537;-71
2022/08/29 06:48:13;;;;;;;15.40;12.93;;;16.50;99.90;;;;;;5031955;28;20940;-71
2022/08/29 06:50:41;;;;;;;16.70;15.00;;;16.70;99.90;;;;;;5031735;28;20544;-71
2022/08/29 06:53:09;;;;;;;16.60;14.27;;;16.70;99.90;;;;;;5031214;28;20476;-71
2022/08/29 06:55:36;;;;;;;16.97;15.17;;;16.80;99.90;;;;;;5032099;28;20532;-70
2022/08/29 06:58:03;;;;;;;15.67;14.00;;;16.90;99.90;;;;;;5031993;28;20444;-70
2022/08/29 07:00:30;;;;;;;15.70;13.10;;;17.00;99.90;;;;;;5031678;28;20459;-70
2022/08/29 07:02:58;;;;;;;16.90;13.70;;;17.10;99.90;;;;;;5031635;28;20476;-69
2022/08/29 07:05:24;;;;;;;15.93;14.33;;;17.20;99.90;;;;;;5032160;28;20455;-73
2022/08/29 07:07:52;;;;;;;16.20;14.57;;;17.30;99.90;;;;;;5032083;28;20812;-70
2022/08/29 07:10:20;;;;;;;17.10;14.13;;;17.40;99.90;;;;;;5031595;28;20483;-71
2022/08/29 07:12:47;;;;;;;15.03;13.63;;;17.40;99.90;;;;;;5031284;28;20465;-70
2022/08/29 07:15:14;;;;;;;14.07;12.57;;;17.50;99.90;;;;;;5031346;28;20487;-69
2022/08/29 07:17:41;;;;;;;14.50;13.00;;;17.70;99.90;;;;;;5031139;28;20452;-69
2022/08/29 07:20:09;;;;;;;20.30;14.17;;;17.80;99.90;;;;;;5031494;28;20824;-70
2022/08/29 07:22:35;;;;;;;13.87;12.40;;;17.80;99.90;;;;;;5030870;28;20481;-70
2022/08/29 07:25:02;;;;;;;12.60;11.43;;;18.00;99.90;;;;;;5031304;28;20821;-69
2022/08/29 07:27:31;;;;;;;14.73;13.33;;;18.00;99.90;;;;;;5031053;28;20980;-70
2022/08/29 07:29:59;;;;;;;16.00;13.00;;;18.10;99.90;;;;;;5030880;28;20455;-71
2022/08/29 07:32:26;;;;;;;15.50;14.00;;;18.20;99.90;;;;;;5028986;28;20530;-71
2022/08/29 07:34:52;;;;;;;15.50;13.90;;;18.30;99.90;;;;;;5030572;28;20485;-71
2022/08/29 07:37:19;;;;;;;14.77;13.37;;;18.40;99.90;;;;;;5030707;28;20449;-70
2022/08/29 07:39:46;;;;;;;15.27;13.43;;;18.40;99.90;;;;;;5030868;28;20464;-68
2022/08/29 07:42:13;;;;;;;17.43;15.63;;;18.50;99.90;;;;;;5030529;28;20469;-66
2022/08/29 07:44:41;;;;;;;16.23;14.60;;;18.60;99.90;;;;;;5030790;28;20496;-67
2022/08/29 07:47:08;;;;;;;15.40;13.90;;;18.70;99.90;;;;;;5030858;28;20449;-68
2022/08/29 07:49:35;;;;;;;13.53;12.23;;;18.80;99.90;;;;;;5030792;28;20449;-68
2022/08/29 07:52:02;;;;;;;14.50;13.17;;;18.90;99.90;;;;;;5030387;28;20455;-67
2022/08/29 07:54:29;;;;;;;15.60;12.63;;;19.00;99.90;;;;;;5024216;28;20485;-69
2022/08/29 07:56:56;;;;;;;14.50;13.20;;;19.00;99.90;;;;;;5026667;28;20456;-68
2022/08/29 07:59:23;;;;;;;14.73;12.30;;;19.10;99.90;;;;;;5017492;28;20980;-67
2022/08/29 08:01:52;;;;;;;14.70;13.23;;;19.20;99.90;;;;;;5013090;28;20483;-66
2022/08/29 08:04:18;;;;;;;13.57;12.27;;;19.30;99.90;;;;;;5024618;28;20198;-69
2022/08/29 08:06:46;;;;;;;14.80;12.87;;;19.50;99.90;;;;;;5014022;28;20450;-68
2022/08/29 08:09:14;;;;;;;14.60;13.07;;;19.60;99.90;;;;;;5020223;28;20449;-68
2022/08/29 08:11:41;;;;;;;15.43;12.90;;;19.70;99.90;;;;;;5018300;28;21158;-70
2022/08/29 08:14:08;;;;;;;14.47;12.27;;;19.80;99.90;;;;;;5018788;28;20493;-68
2022/08/29 08:16:35;;;;;;;13.47;12.17;;;19.90;99.90;;;;;;5018932;28;20936;-68
2022/08/29 08:19:03;;;;;;;13.50;12.20;;;20.10;99.90;;;;;;5019752;28;20444;-68
2022/08/29 08:21:30;;;;;;;13.53;11.97;;;20.20;99.90;;;;;;5020008;28;20453;-69
2022/08/29 08:23:57;;;;;;;13.20;11.73;;;20.30;99.90;;;;;;5019746;28;20850;-67
2022/08/29 08:26:25;;;;;;;15.30;13.17;;;20.30;99.90;;;;;;5022583;28;20453;-68
2022/08/29 08:28:53;;;;;;;12.73;11.60;;;20.40;99.90;;;;;;5024277;28;20455;-68
2022/08/29 08:31:20;;;;;;;13.10;12.00;;;20.50;99.90;;;;;;5026640;28;20835;-68
2022/08/29 08:33:47;;;;;;;11.47;10.30;;;20.60;99.90;;;;;;5022835;28;20493;-68
2022/08/29 08:36:20;;;;;;;13.33;11.93;;;20.70;99.90;;;;;;5022766;28;20452;-68
2022/08/29 08:38:48;;;;;;;13.20;11.50;;;20.80;99.90;;;;;;5018795;28;20449;-68
2022/08/29 08:41:30;;;;;;;13.57;12.23;;;21.00;99.90;;;;;;5023774;28;20463;-68
2022/08/29 08:44:00;;;;;;;14.93;11.50;;;21.10;99.90;;;;;;5022408;28;20465;-69
2022/08/29 08:46:35;;;;;;;12.37;10.43;;;21.30;99.90;;;;;;5025151;28;20457;-69
2022/08/29 08:49:04;;;;;;;14.37;12.83;;;21.60;99.90;;;;;;5027139;28;21014;-68
2022/08/29 08:51:35;;;;;;;12.83;11.53;;;21.80;99.90;;;;;;5029568;28;20452;-68
2022/08/29 08:54:07;;;;;;;13.80;11.83;;;22.00;99.90;;;;;;5028818;28;20488;-67
2022/08/29 08:56:38;;;;;;;12.53;11.20;;;22.10;99.90;;;;;;5026152;28;20472;-67
2022/08/29 08:59:10;;;;;;;11.67;10.50;;;22.30;99.90;;;;;;5026931;28;20483;-67
2022/08/29 09:01:41;;;;;;;12.60;11.30;;;22.40;99.90;;;;;;5024596;28;20449;-66
2022/08/29 09:04:31;;;;;;;11.70;10.80;;;22.60;99.90;;;;;;5026960;28;20488;-67
2022/08/29 09:07:10;;;;;;;13.17;11.87;;;22.80;99.90;;;;;;5024923;28;20813;-68
2022/08/29 09:09:49;;;;;;;11.60;10.40;;;23.00;99.90;;;;;;5027716;28;20448;-67
2022/08/29 09:12:27;;;;;;;12.17;10.77;;;23.20;99.90;;;;;;5022984;28;21078;-68
2022/08/29 09:15:02;;;;;;;11.93;10.83;;;23.30;99.90;;;;;;5027046;28;21026;-66
2022/08/29 09:17:35;;;;;;;11.70;10.50;;;23.30;99.90;;;;;;5027547;28;20456;-67
2022/08/29 09:20:04;;;;;;;11.20;9.73;;;23.40;99.90;;;;;;5033048;28;20868;-67
2022/08/29 09:22:34;;;;;;;11.20;10.30;;;23.50;99.90;;;;;;5032937;28;20992;-68
2022/08/29 09:25:04;;;;;;;11.00;9.97;;;23.80;99.90;;;;;;5030040;28;20453;-67
2022/08/29 09:27:33;;;;;;;10.73;9.63;;;24.20;99.90;;;;;;5031754;28;20464;-68
2022/08/29 09:30:05;;;;;;;9.63;8.90;;;24.50;99.90;;;;;;5030158;28;20467;-67
2022/08/29 09:32:33;;;;;;;8.77;7.97;;;25.20;99.90;;;;;;5033125;28;20503;-67
2022/08/29 09:34:59;;;;;;;9.87;8.83;;;26.00;99.90;;;;;;5021196;28;20488;-68
2022/08/29 09:37:30;;;;;;;9.53;8.60;;;26.50;99.90;;;;;;5024853;28;20449;-67
2022/08/29 09:40:02;;;;;;;9.30;8.50;;;26.40;99.90;;;;;;5024181;28;20468;-68
2022/08/29 09:42:32;;;;;;;10.90;9.80;;;26.50;99.90;;;;;;5023857;28;20468;-68
2022/08/29 09:45:04;;;;;;;10.47;9.47;;;26.50;99.90;;;;;;5026952;28;20537;-67
2022/08/29 09:47:32;;;;;;;9.53;8.63;;;26.10;99.90;;;;;;5027114;28;20450;-68
2022/08/29 09:50:10;;;;;;;10.23;8.90;;;26.40;99.90;;;;;;5024841;28;20491;-67
2022/08/29 09:52:40;;;;;;;9.53;8.03;;;26.50;99.90;;;;;;5021721;28;20465;-67
2022/08/29 09:55:22;;;;;;;10.80;9.07;;;26.50;99.90;;;;;;5031693;28;20484;-66
2022/08/29 09:57:53;;;;;;;11.37;8.70;;;26.40;99.90;;;;;;5015662;28;20463;-66
2022/08/29 10:00:28;;;;;;;8.93;8.13;;;26.40;99.90;;;;;;5026816;28;20453;-68
2022/08/29 10:02:58;;;;;;;9.13;7.50;;;26.70;99.90;;;;;;5024101;28;20501;-68
2022/08/29 10:05:40;;;;;;;7.97;5.40;;;27.10;99.90;;;;;;5029798;28;20449;-67
2022/08/29 10:08:23;;;;;;;9.80;6.67;;;27.70;99.90;;;;;;5028429;28;20445;-68
2022/08/29 10:10:54;;;;;;;7.07;6.37;;;27.90;99.90;;;;;;5025533;28;20952;-68
2022/08/29 10:13:26;;;;;;;9.23;8.30;;;28.30;98.20;;;;;;5026359;28;21021;-67
2022/08/29 10:15:58;;;;;;;7.97;7.10;;;28.40;98.00;;;;;;5025692;28;20849;-67
2022/08/29 10:18:32;;;;;;;9.43;8.30;;;28.00;98.50;;;;;;5019327;28;20457;-67
2022/08/29 10:21:12;;;;;;;6.77;6.07;;;28.00;99.10;;;;;;5027494;28;20455;-67
2022/08/29 10:23:50;;;;;;;9.13;7.23;;;28.10;97.60;;;;;;5025050;28;20842;-66
2022/08/29 10:26:29;;;;;;;7.93;7.03;;;27.70;97.80;;;;;;5028215;28;20452;-68
2022/08/29 10:29:03;;;;;;;7.33;6.30;;;27.20;98.30;;;;;;5021651;28;20818;-68
2022/08/29 10:31:36;;;;;;;7.20;6.30;;;27.50;99.90;;;;;;5022794;28;20540;-67
2022/08/29 10:34:25;;;;;;;6.57;5.97;;;28.10;98.40;;;;;;5021742;28;20469;-67
2022/08/29 10:37:01;;;;;;;7.20;5.93;;;27.90;97.90;;;;;;5027794;28;20449;-68
2022/08/29 10:39:38;;;;;;;8.73;7.83;;;27.90;97.70;;;;;;5030301;28;20447;-67
2022/08/29 10:42:10;;;;;;;14.20;6.37;;;28.40;97.00;;;;;;5026875;28;20459;-66
2022/08/29 10:44:49;;;;;;;8.37;6.90;;;28.70;96.10;;;;;;5031356;28;20798;-66
2022/08/29 10:47:25;;;;;;;8.77;6.27;;;28.80;95.40;;;;;;5025455;28;20936;-66
2022/08/29 10:50:10;;;;;;;8.83;5.53;;;28.20;95.30;;;;;;5016724;28;20532;-66
2022/08/29 10:52:46;;;;;;;6.80;6.10;;;28.60;96.80;;;;;;5022693;28;21545;-67
2022/08/29 10:55:22;;;;;;;6.17;5.57;;;28.90;94.50;;;;;;5023694;28;20842;-67
2022/08/29 10:58:02;;;;;;;6.50;5.83;;;28.70;93.10;;;;;;5027744;28;20830;-68
2022/08/29 11:00:37;;;;;;;8.87;4.97;;;28.80;94.30;;;;;;5021772;28;21139;-68
2022/08/29 11:03:12;;;;;;;7.30;4.87;;;28.70;93.70;;;;;;5022113;28;20465;-67
2022/08/29 11:05:42;;;;;;;6.23;5.57;;;28.90;93.90;;;;;;5031270;28;20440;-68
2022/08/29 11:08:13;;;;;;;5.47;5.07;;;29.20;92.30;;;;;;5029269;28;20452;-69
2022/08/29 11:10:43;;;;;;;5.43;4.93;;;29.70;91.80;;;;;;5031101;28;20480;-69
2022/08/29 11:13:15;;;;;;;5.50;4.77;;;30.30;91.10;;;;;;5027569;28;20557;-67
2022/08/29 11:15:45;;;;;;;8.33;5.80;;;30.00;90.70;;;;;;5025056;28;20477;-67
2022/08/29 11:18:20;;;;;;;5.00;4.50;;;29.50;91.30;;;;;;5028273;28;20464;-68
2022/08/29 11:20:51;;;;;;;8.37;6.03;;;29.50;91.70;;;;;;5019670;28;20437;-68
2022/08/29 11:23:30;;;;;;;6.73;6.13;;;29.10;91.60;;;;;;5031049;28;20606;-68
2022/08/29 11:26:00;;;;;;;5.90;5.00;;;28.70;91.50;;;;;;5030910;28;20449;-68
2022/08/29 11:28:38;;;;;;;5.33;4.83;;;28.90;92.20;;;;;;5028961;28;20789;-67
2022/08/29 11:31:12;;;;;;;5.97;5.20;;;29.60;91.20;;;;;;5029490;28;20464;-68
2022/08/29 11:33:46;;;;;;;5.57;4.93;;;29.80;90.80;;;;;;5020529;28;21081;-68
2022/08/29 11:36:28;;;;;;;6.30;5.03;;;29.80;90.40;;;;;;5029861;28;20491;-68
2022/08/29 11:39:11;;;;;;;9.30;5.63;;;29.80;90.50;;;;;;5030811;28;20455;-67
2022/08/29 11:41:43;;;;;;;6.23;5.00;;;29.80;90.20;;;;;;5031075;28;20445;-67
2022/08/29 11:44:23;;;;;;;6.83;4.73;;;29.60;90.10;;;;;;5030336;28;20461;-68
2022/08/29 11:46:51;;;;;;;6.87;5.23;;;30.10;89.20;;;;;;5030685;28;20445;-67
2022/08/29 11:49:38;;;;;;;6.20;5.70;;;29.80;89.70;;;;;;5030851;28;20445;-67
2022/08/29 11:52:25;;;;;;;8.23;5.40;;;29.60;89.40;;;;;;5030552;28;20455;-67
2022/08/29 11:55:13;;;;;;;7.40;5.03;;;29.60;87.90;;;;;;5030536;28;20491;-68
2022/08/29 11:57:49;;;;;;;6.40;5.50;;;29.90;88.80;;;;;;5030658;28;20445;-68
2022/08/29 12:00:44;;;;;;;5.83;5.20;;;30.70;89.10;;;;;;5015062;28;20858;-68
2022/08/29 12:03:51;;;;;;;9.43;4.80;;;31.90;83.30;;;;;;5029442;28;20473;-67
2022/08/29 12:06:29;;;;;;;8.00;5.67;;;31.20;81.90;;;;;;5029528;28;20429;-67
2022/08/29 12:09:03;;;;;;;6.70;5.77;;;30.00;83.30;;;;;;5030409;28;20453;-67
2022/08/29 12:12:07;;;;;;;7.70;5.37;;;30.00;83.60;;;;;;5030277;28;20455;-67
2022/08/29 12:14:36;;;;;;;4.67;4.20;;;30.90;84.30;;;;;;5016707;28;20441;-67
2022/08/29 12:17:06;;;;;;;6.27;5.10;;;31.20;81.90;;;;;;5030307;28;20441;-67
2022/08/29 12:19:51;;;;;;;6.93;4.30;;;31.90;79.30;;;;;;5030048;28;20437;-67
2022/08/29 12:23:00;;;;;;;5.00;4.50;;;32.60;79.30;;;;;;5014113;28;20983;-67
2022/08/29 12:25:45;;;;;;;6.60;4.43;;;32.80;78.10;;;;;;5014394;28;20457;-70
2022/08/29 12:28:46;;;;;;;4.97;4.50;;;33.60;76.90;;;;;;5028779;28;20452;-68
2022/08/29 12:31:37;;;;;;;5.80;4.87;;;33.30;72.30;;;;;;5030177;28;20444;-69
2022/08/29 12:34:26;;;;;;;8.30;5.23;;;33.00;71.40;;;;;;5023665;28;20823;-68
2022/08/29 12:37:10;;;;;;;6.30;5.17;;;33.00;72.70;;;;;;5026178;28;20476;-67
2022/08/29 12:39:59;;;;;;;6.40;4.40;;;33.00;71.10;;;;;;5030153;28;20456;-67
2022/08/29 12:42:37;;;;;;;5.23;4.77;;;33.80;70.80;;;;;;5015003;28;20449;-67
2022/08/29 12:45:10;;;;;;;22.00;19.73;;;33.70;68.00;;;;;;5030389;28;20425;-68
2022/08/29 12:47:41;;;;;;;12.10;9.20;;;33.40;71.00;;;;;;5030152;28;20432;-67
2022/08/29 12:50:21;;;;;;;5.03;4.47;;;34.50;72.80;;;;;;5029901;28;20429;-70